NWA39 EGPK-EINN
Flight info
| Callsign | NWA39 |
|---|---|
| Flight time | 0h 46m |
| Altitude | 24000 |
| Route | TRN P600 BLACA P620 NELBO DCT NIMAT DCT DUB DCT PELIG DCT DIGAN DIGAN2D |
| Aircraft | B742/H-SDFHIRWXY/L |
Departure
| Time | 2026-04-25 11:03 |
|---|---|
| Airport | Glasgow Prestwick Airport (EGPK) |
Arrival
| Time | 2026-04-25 11:49 |
|---|---|
| Airport | Shannon Airport (EINN) |
| Time | Latitude | Longitude | Altitude | Speed | Heading |
|---|---|---|---|---|---|
| 2026-04-25 10:53 | 55.51079 | -4.61034 | 40 ft | 0 kts | 121° |
| 2026-04-25 10:55 | 55.51085 | -4.61052 | 40 ft | 2 kts | 112° |
| 2026-04-25 10:55 | 55.51089 | -4.61077 | 40 ft | 2 kts | 99° |
| 2026-04-25 10:55 | 55.51090 | -4.61103 | 40 ft | 2 kts | 88° |
| 2026-04-25 10:55 | 55.51089 | -4.61129 | 40 ft | 2 kts | 76° |
| 2026-04-25 10:56 | 55.51084 | -4.61154 | 40 ft | 2 kts | 65° |
| 2026-04-25 10:56 | 55.51076 | -4.61177 | 40 ft | 2 kts | 53° |
| 2026-04-25 10:56 | 55.51067 | -4.61196 | 40 ft | 2 kts | 41° |
| 2026-04-25 10:56 | 55.51059 | -4.61209 | 40 ft | 0 kts | 40° |
| 2026-04-25 10:57 | 55.51058 | -4.61209 | 40 ft | 0 kts | 40° |
| 2026-04-25 10:58 | 55.51100 | -4.61145 | 40 ft | 16 kts | 42° |
| 2026-04-25 10:58 | 55.51197 | -4.60909 | 41 ft | 25 kts | 74° |
| 2026-04-25 10:58 | 55.51140 | -4.60624 | 40 ft | 25 kts | 121° |
| 2026-04-25 10:59 | 55.51045 | -4.60351 | 40 ft | 26 kts | 121° |
| 2026-04-25 10:59 | 55.50948 | -4.60065 | 40 ft | 27 kts | 120° |
| 2026-04-25 10:59 | 55.50849 | -4.59776 | 41 ft | 27 kts | 122° |
| 2026-04-25 10:59 | 55.50747 | -4.59498 | 45 ft | 26 kts | 125° |
| 2026-04-25 11:00 | 55.50649 | -4.59225 | 45 ft | 24 kts | 117° |
| 2026-04-25 11:00 | 55.50570 | -4.58965 | 47 ft | 24 kts | 118° |
| 2026-04-25 11:00 | 55.50494 | -4.58707 | 49 ft | 22 kts | 117° |
| 2026-04-25 11:00 | 55.50423 | -4.58477 | 51 ft | 20 kts | 121° |
| 2026-04-25 11:01 | 55.50349 | -4.58266 | 55 ft | 19 kts | 121° |
| 2026-04-25 11:01 | 55.50280 | -4.58066 | 58 ft | 16 kts | 118° |
| 2026-04-25 11:01 | 55.50283 | -4.57963 | 60 ft | 2 kts | 40° |
| 2026-04-25 11:01 | 55.50304 | -4.57940 | 60 ft | 5 kts | 31° |
| 2026-04-25 11:02 | 55.50358 | -4.57902 | 59 ft | 11 kts | 11° |
| 2026-04-25 11:02 | 55.50440 | -4.58013 | 58 ft | 27 kts | 301° |
| 2026-04-25 11:02 | 55.50706 | -4.58776 | 49 ft | 125 kts | 301° |
| 2026-04-25 11:02 | 55.51277 | -4.60471 | 491 ft | 177 kts | 300° |
| 2026-04-25 11:03 | 55.51913 | -4.62351 | 1349 ft | 180 kts | 302° |
| 2026-04-25 11:03 | 55.52542 | -4.64169 | 1964 ft | 172 kts | 301° |
| 2026-04-25 11:03 | 55.52981 | -4.66232 | 2101 ft | 191 kts | 267° |
| 2026-04-25 11:03 | 55.52500 | -4.68450 | 2345 ft | 204 kts | 224° |
| 2026-04-25 11:04 | 55.51348 | -4.70039 | 2696 ft | 216 kts | 217° |
| 2026-04-25 11:04 | 55.50141 | -4.71669 | 3140 ft | 227 kts | 216° |
| 2026-04-25 11:04 | 55.48730 | -4.73046 | 3665 ft | 237 kts | 201° |
| 2026-04-25 11:04 | 55.47151 | -4.73912 | 4263 ft | 244 kts | 193° |
| 2026-04-25 11:05 | 55.45473 | -4.74533 | 4914 ft | 249 kts | 191° |
| 2026-04-25 11:05 | 55.43764 | -4.75057 | 5586 ft | 254 kts | 189° |
| 2026-04-25 11:05 | 55.42017 | -4.75545 | 6276 ft | 258 kts | 189° |
| 2026-04-25 11:05 | 55.40236 | -4.76024 | 6986 ft | 261 kts | 189° |
| 2026-04-25 11:06 | 55.38434 | -4.76501 | 7711 ft | 263 kts | 189° |
| 2026-04-25 11:06 | 55.36646 | -4.76972 | 8430 ft | 265 kts | 189° |
| 2026-04-25 11:06 | 55.34822 | -4.77452 | 9166 ft | 265 kts | 189° |
| 2026-04-25 11:06 | 55.33013 | -4.77928 | 9885 ft | 265 kts | 189° |
| 2026-04-25 11:07 | 55.31208 | -4.78529 | 10579 ft | 264 kts | 200° |
| 2026-04-25 11:07 | 55.29563 | -4.79851 | 11252 ft | 263 kts | 207° |
| 2026-04-25 11:07 | 55.27933 | -4.81324 | 11934 ft | 263 kts | 207° |
| 2026-04-25 11:07 | 55.26335 | -4.82756 | 12570 ft | 262 kts | 207° |
| 2026-04-25 11:08 | 55.24705 | -4.84202 | 13199 ft | 261 kts | 207° |
| 2026-04-25 11:08 | 55.23109 | -4.85612 | 13787 ft | 260 kts | 206° |
| 2026-04-25 11:08 | 55.21501 | -4.87028 | 14367 ft | 259 kts | 206° |
| 2026-04-25 11:08 | 55.19892 | -4.88441 | 14917 ft | 259 kts | 206° |
| 2026-04-25 11:09 | 55.18292 | -4.89844 | 15441 ft | 259 kts | 205° |
| 2026-04-25 11:09 | 55.16694 | -4.91244 | 15946 ft | 258 kts | 205° |
| 2026-04-25 11:09 | 55.15094 | -4.92645 | 16440 ft | 258 kts | 205° |
| 2026-04-25 11:09 | 55.13506 | -4.94034 | 16892 ft | 258 kts | 205° |
| 2026-04-25 11:10 | 55.11890 | -4.95447 | 17346 ft | 258 kts | 205° |
| 2026-04-25 11:10 | 55.10832 | -4.96371 | 17635 ft | 259 kts | 205° |
| 2026-04-25 11:10 | 55.08679 | -4.98249 | 18203 ft | 260 kts | 204° |
| 2026-04-25 11:10 | 55.07077 | -4.99645 | 18617 ft | 260 kts | 204° |
| 2026-04-25 11:11 | 55.05471 | -5.01042 | 19024 ft | 261 kts | 204° |
| 2026-04-25 11:11 | 55.03850 | -5.02453 | 19437 ft | 261 kts | 204° |
| 2026-04-25 11:11 | 55.02233 | -5.03859 | 19843 ft | 261 kts | 204° |
| 2026-04-25 11:11 | 55.00597 | -5.05279 | 20241 ft | 261 kts | 205° |
| 2026-04-25 11:12 | 54.98975 | -5.06687 | 20627 ft | 262 kts | 204° |
| 2026-04-25 11:12 | 54.97366 | -5.08082 | 21009 ft | 262 kts | 204° |
| 2026-04-25 11:12 | 54.95735 | -5.09494 | 21381 ft | 262 kts | 205° |
| 2026-04-25 11:12 | 54.94126 | -5.10887 | 21734 ft | 262 kts | 204° |
| 2026-04-25 11:13 | 54.92482 | -5.12308 | 22081 ft | 262 kts | 204° |
| 2026-04-25 11:13 | 54.90850 | -5.13718 | 22419 ft | 263 kts | 204° |
| 2026-04-25 11:13 | 54.89215 | -5.15129 | 22755 ft | 263 kts | 205° |
| 2026-04-25 11:13 | 54.87531 | -5.16247 | 23044 ft | 261 kts | 191° |
| 2026-04-25 11:14 | 54.85753 | -5.16906 | 23362 ft | 261 kts | 190° |
| 2026-04-25 11:14 | 54.83993 | -5.17526 | 23679 ft | 261 kts | 190° |
| 2026-04-25 11:14 | 54.82228 | -5.18162 | 24003 ft | 261 kts | 191° |
| 2026-04-25 11:14 | 54.80456 | -5.18809 | 24316 ft | 261 kts | 191° |
| 2026-04-25 11:15 | 54.78664 | -5.19467 | 24626 ft | 261 kts | 191° |
| 2026-04-25 11:15 | 54.76912 | -5.20111 | 24911 ft | 262 kts | 192° |
| 2026-04-25 11:15 | 54.75123 | -5.20769 | 25194 ft | 262 kts | 192° |
| 2026-04-25 11:15 | 54.73345 | -5.21423 | 25471 ft | 262 kts | 192° |
| 2026-04-25 11:16 | 54.69788 | -5.22729 | 25986 ft | 263 kts | 192° |
| 2026-04-25 11:16 | 54.67999 | -5.23384 | 26233 ft | 264 kts | 192° |
| 2026-04-25 11:16 | 54.66203 | -5.24041 | 26480 ft | 264 kts | 192° |
| 2026-04-25 11:17 | 54.64416 | -5.24696 | 26723 ft | 265 kts | 192° |
| 2026-04-25 11:17 | 54.62600 | -5.25359 | 26962 ft | 265 kts | 192° |
| 2026-04-25 11:17 | 54.60796 | -5.26017 | 27203 ft | 265 kts | 193° |
| 2026-04-25 11:17 | 54.59003 | -5.26671 | 27439 ft | 266 kts | 193° |
| 2026-04-25 11:18 | 54.57156 | -5.27346 | 27364 ft | 279 kts | 193° |
| 2026-04-25 11:18 | 54.55206 | -5.28056 | 27180 ft | 296 kts | 193° |
| 2026-04-25 11:18 | 54.53108 | -5.28821 | 26801 ft | 322 kts | 193° |
| 2026-04-25 11:18 | 54.50810 | -5.29661 | 26356 ft | 350 kts | 193° |
| 2026-04-25 11:19 | 54.48397 | -5.30797 | 25910 ft | 376 kts | 202° |
| 2026-04-25 11:19 | 54.45949 | -5.32704 | 25474 ft | 403 kts | 207° |
| 2026-04-25 11:19 | 54.43364 | -5.34943 | 25072 ft | 430 kts | 208° |
| 2026-04-25 11:19 | 54.40614 | -5.37341 | 24687 ft | 456 kts | 208° |
| 2026-04-25 11:20 | 54.37727 | -5.39839 | 24376 ft | 479 kts | 207° |
| 2026-04-25 11:20 | 54.34673 | -5.42452 | 24271 ft | 497 kts | 207° |
| 2026-04-25 11:20 | 54.31543 | -5.45112 | 24255 ft | 512 kts | 207° |
| 2026-04-25 11:20 | 54.28321 | -5.47833 | 24254 ft | 524 kts | 207° |
| 2026-04-25 11:21 | 54.25052 | -5.50583 | 24253 ft | 531 kts | 207° |
| 2026-04-25 11:21 | 54.21790 | -5.53315 | 24254 ft | 512 kts | 208° |
| 2026-04-25 11:21 | 54.18688 | -5.55905 | 24254 ft | 485 kts | 208° |
| 2026-04-25 11:21 | 54.15745 | -5.58360 | 24254 ft | 463 kts | 208° |
| 2026-04-25 11:22 | 54.12854 | -5.60771 | 24253 ft | 458 kts | 208° |
| 2026-04-25 11:22 | 54.10001 | -5.63151 | 24259 ft | 463 kts | 208° |
| 2026-04-25 11:22 | 54.07091 | -5.65574 | 24261 ft | 463 kts | 207° |
| 2026-04-25 11:22 | 54.04210 | -5.67924 | 24262 ft | 461 kts | 207° |
| 2026-04-25 11:23 | 54.01326 | -5.70256 | 24260 ft | 462 kts | 207° |
| 2026-04-25 11:23 | 53.98426 | -5.72611 | 24261 ft | 462 kts | 207° |
| 2026-04-25 11:23 | 53.95589 | -5.75208 | 24263 ft | 460 kts | 214° |
| 2026-04-25 11:23 | 53.92948 | -5.78247 | 24263 ft | 460 kts | 217° |
| 2026-04-25 11:24 | 53.90379 | -5.81429 | 24263 ft | 460 kts | 218° |
| 2026-04-25 11:24 | 53.87800 | -5.84671 | 24263 ft | 460 kts | 218° |
| 2026-04-25 11:24 | 53.85248 | -5.87866 | 24262 ft | 460 kts | 218° |
| 2026-04-25 11:24 | 53.82658 | -5.91083 | 24263 ft | 460 kts | 218° |
| 2026-04-25 11:25 | 53.80095 | -5.94240 | 24263 ft | 460 kts | 218° |
| 2026-04-25 11:25 | 53.77504 | -5.97416 | 24263 ft | 459 kts | 218° |
| 2026-04-25 11:25 | 53.74921 | -6.00570 | 24262 ft | 460 kts | 218° |
| 2026-04-25 11:25 | 53.72310 | -6.03749 | 24260 ft | 460 kts | 218° |
| 2026-04-25 11:26 | 53.69719 | -6.06896 | 24262 ft | 462 kts | 218° |
| 2026-04-25 11:26 | 53.67123 | -6.10045 | 24266 ft | 469 kts | 218° |
| 2026-04-25 11:26 | 53.64444 | -6.13291 | 24261 ft | 472 kts | 217° |
| 2026-04-25 11:26 | 53.61798 | -6.16488 | 24257 ft | 469 kts | 217° |
| 2026-04-25 11:27 | 53.59139 | -6.19696 | 24253 ft | 471 kts | 217° |
| 2026-04-25 11:27 | 53.56474 | -6.22907 | 24261 ft | 471 kts | 217° |
| 2026-04-25 11:27 | 53.53833 | -6.26084 | 24261 ft | 470 kts | 217° |
| 2026-04-25 11:27 | 53.52093 | -6.28265 | 24258 ft | 468 kts | 221° |
| 2026-04-25 11:28 | 53.49208 | -6.33654 | 24262 ft | 468 kts | 237° |
| 2026-04-25 11:28 | 53.47576 | -6.38425 | 24264 ft | 467 kts | 243° |
| 2026-04-25 11:28 | 53.46169 | -6.43298 | 24263 ft | 468 kts | 245° |
| 2026-04-25 11:28 | 53.44808 | -6.48242 | 24261 ft | 467 kts | 246° |
| 2026-04-25 11:29 | 53.43457 | -6.53147 | 24261 ft | 467 kts | 246° |
| 2026-04-25 11:29 | 53.42072 | -6.58108 | 24257 ft | 467 kts | 245° |
| 2026-04-25 11:29 | 53.40685 | -6.63005 | 24256 ft | 467 kts | 245° |
| 2026-04-25 11:29 | 53.39272 | -6.67922 | 24256 ft | 467 kts | 244° |
| 2026-04-25 11:30 | 53.37832 | -6.72797 | 24253 ft | 467 kts | 244° |
| 2026-04-25 11:30 | 53.36396 | -6.77640 | 24254 ft | 467 kts | 244° |
| 2026-04-25 11:30 | 53.34962 | -6.82494 | 24250 ft | 467 kts | 244° |
| 2026-04-25 11:30 | 53.33530 | -6.87361 | 24248 ft | 467 kts | 244° |
| 2026-04-25 11:31 | 53.32103 | -6.92226 | 24249 ft | 468 kts | 244° |
| 2026-04-25 11:31 | 53.30677 | -6.97091 | 24243 ft | 467 kts | 244° |
| 2026-04-25 11:31 | 53.29246 | -7.01970 | 24243 ft | 467 kts | 244° |
| 2026-04-25 11:31 | 53.27798 | -7.06900 | 24243 ft | 467 kts | 244° |
| 2026-04-25 11:32 | 53.26377 | -7.11727 | 24244 ft | 467 kts | 244° |
| 2026-04-25 11:32 | 53.24962 | -7.16526 | 24240 ft | 459 kts | 244° |
| 2026-04-25 11:32 | 53.23577 | -7.21211 | 24101 ft | 440 kts | 244° |
| 2026-04-25 11:32 | 53.22243 | -7.25720 | 23693 ft | 430 kts | 244° |
| 2026-04-25 11:33 | 53.20939 | -7.30117 | 23288 ft | 420 kts | 244° |
| 2026-04-25 11:33 | 53.19658 | -7.34427 | 22881 ft | 411 kts | 244° |
| 2026-04-25 11:33 | 53.18394 | -7.38669 | 22443 ft | 403 kts | 244° |
| 2026-04-25 11:33 | 53.17156 | -7.42814 | 21861 ft | 400 kts | 244° |
| 2026-04-25 11:34 | 53.15926 | -7.46927 | 21280 ft | 397 kts | 244° |
| 2026-04-25 11:34 | 53.14708 | -7.50990 | 20702 ft | 393 kts | 244° |
| 2026-04-25 11:34 | 53.13490 | -7.55045 | 20123 ft | 391 kts | 244° |
| 2026-04-25 11:34 | 53.12283 | -7.59059 | 19548 ft | 388 kts | 244° |
| 2026-04-25 11:35 | 53.11088 | -7.63023 | 18975 ft | 385 kts | 244° |
| 2026-04-25 11:35 | 53.09877 | -7.67021 | 18396 ft | 382 kts | 243° |
| 2026-04-25 11:35 | 53.08685 | -7.70872 | 17559 ft | 372 kts | 242° |
| 2026-04-25 11:35 | 53.07524 | -7.74627 | 16594 ft | 366 kts | 242° |
| 2026-04-25 11:36 | 53.06392 | -7.78317 | 15547 ft | 362 kts | 242° |
| 2026-04-25 11:36 | 53.05252 | -7.82051 | 14477 ft | 358 kts | 242° |
| 2026-04-25 11:36 | 53.04143 | -7.85693 | 13424 ft | 354 kts | 242° |
| 2026-04-25 11:36 | 53.03056 | -7.89259 | 12385 ft | 351 kts | 242° |
| 2026-04-25 11:37 | 53.01970 | -7.92819 | 11338 ft | 347 kts | 241° |
| 2026-04-25 11:37 | 53.00897 | -7.96334 | 10557 ft | 334 kts | 241° |
| 2026-04-25 11:37 | 52.99863 | -7.99712 | 9899 ft | 322 kts | 241° |
| 2026-04-25 11:37 | 52.98871 | -8.02947 | 9241 ft | 311 kts | 241° |
| 2026-04-25 11:38 | 52.97921 | -8.06043 | 8595 ft | 303 kts | 241° |
| 2026-04-25 11:38 | 52.96974 | -8.09120 | 7934 ft | 296 kts | 241° |
| 2026-04-25 11:38 | 52.96047 | -8.12132 | 7270 ft | 290 kts | 241° |
| 2026-04-25 11:38 | 52.95144 | -8.15088 | 6606 ft | 285 kts | 243° |
| 2026-04-25 11:39 | 52.94434 | -8.18078 | 6129 ft | 275 kts | 249° |
| 2026-04-25 11:39 | 52.93832 | -8.21001 | 5713 ft | 268 kts | 250° |
| 2026-04-25 11:39 | 52.93245 | -8.23915 | 5291 ft | 266 kts | 250° |
| 2026-04-25 11:39 | 52.92665 | -8.26798 | 4871 ft | 264 kts | 250° |
| 2026-04-25 11:40 | 52.92085 | -8.29670 | 4451 ft | 263 kts | 250° |
| 2026-04-25 11:40 | 52.91507 | -8.32534 | 4066 ft | 261 kts | 250° |
| 2026-04-25 11:40 | 52.90932 | -8.35370 | 3692 ft | 260 kts | 250° |
| 2026-04-25 11:40 | 52.90358 | -8.38202 | 3383 ft | 258 kts | 250° |
| 2026-04-25 11:41 | 52.89789 | -8.41003 | 3275 ft | 258 kts | 250° |
| 2026-04-25 11:41 | 52.89217 | -8.43826 | 3249 ft | 258 kts | 250° |
| 2026-04-25 11:41 | 52.88663 | -8.46555 | 3235 ft | 242 kts | 250° |
| 2026-04-25 11:41 | 52.88126 | -8.49189 | 3239 ft | 237 kts | 250° |
| 2026-04-25 11:42 | 52.87624 | -8.51653 | 3233 ft | 216 kts | 250° |
| 2026-04-25 11:42 | 52.87195 | -8.54012 | 3232 ft | 213 kts | 263° |
| 2026-04-25 11:42 | 52.86813 | -8.56343 | 3247 ft | 211 kts | 239° |
| 2026-04-25 11:42 | 52.86064 | -8.58435 | 3245 ft | 207 kts | 236° |
| 2026-04-25 11:43 | 52.85242 | -8.60370 | 3246 ft | 208 kts | 232° |
| 2026-04-25 11:43 | 52.84372 | -8.62237 | 3258 ft | 196 kts | 231° |
| 2026-04-25 11:43 | 52.83581 | -8.63886 | 3239 ft | 172 kts | 231° |
| 2026-04-25 11:43 | 52.82866 | -8.65383 | 3233 ft | 159 kts | 230° |
| 2026-04-25 11:44 | 52.82200 | -8.66793 | 3240 ft | 156 kts | 231° |
| 2026-04-25 11:44 | 52.81546 | -8.68191 | 3217 ft | 148 kts | 231° |
| 2026-04-25 11:44 | 52.80923 | -8.69531 | 3045 ft | 145 kts | 231° |
| 2026-04-25 11:44 | 52.80308 | -8.70854 | 2901 ft | 145 kts | 231° |
| 2026-04-25 11:45 | 52.79700 | -8.72162 | 2752 ft | 144 kts | 231° |
| 2026-04-25 11:45 | 52.79092 | -8.73467 | 2591 ft | 143 kts | 231° |
| 2026-04-25 11:45 | 52.78489 | -8.74764 | 2469 ft | 140 kts | 231° |
| 2026-04-25 11:45 | 52.77896 | -8.76034 | 2260 ft | 140 kts | 231° |
| 2026-04-25 11:46 | 52.77309 | -8.77297 | 2035 ft | 138 kts | 230° |
| 2026-04-25 11:46 | 52.76728 | -8.78539 | 1873 ft | 136 kts | 230° |
| 2026-04-25 11:46 | 52.76158 | -8.79760 | 1739 ft | 137 kts | 230° |
| 2026-04-25 11:46 | 52.75575 | -8.81005 | 1525 ft | 135 kts | 231° |
| 2026-04-25 11:47 | 52.75004 | -8.82227 | 1324 ft | 135 kts | 231° |
| 2026-04-25 11:47 | 52.74427 | -8.83459 | 1159 ft | 137 kts | 231° |
| 2026-04-25 11:47 | 52.73851 | -8.84687 | 987 ft | 136 kts | 232° |
| 2026-04-25 11:47 | 52.73273 | -8.85959 | 838 ft | 140 kts | 231° |
| 2026-04-25 11:48 | 52.72668 | -8.87251 | 627 ft | 142 kts | 230° |
| 2026-04-25 11:48 | 52.72070 | -8.88500 | 404 ft | 136 kts | 230° |
| 2026-04-25 11:48 | 52.71504 | -8.89692 | 203 ft | 131 kts | 231° |
| 2026-04-25 11:48 | 52.70965 | -8.90841 | 29 ft | 125 kts | 231° |
| 2026-04-25 11:49 | 52.70476 | -8.91889 | 17 ft | 94 kts | 233° |
| 2026-04-25 11:49 | 52.70205 | -8.92461 | 18 ft | 34 kts | 232° |
| 2026-04-25 11:49 | 52.70153 | -8.92571 | 17 ft | 3 kts | 231° |
| 2026-04-25 11:49 | 52.70085 | -8.92716 | 17 ft | 28 kts | 232° |
| 2026-04-25 11:50 | 52.69922 | -8.92961 | 20 ft | 30 kts | 177° |
| 2026-04-25 11:50 | 52.69780 | -8.92742 | 17 ft | 18 kts | 137° |
| 2026-04-25 11:50 | 52.69688 | -8.92599 | 17 ft | 18 kts | 140° |
| 2026-04-25 11:50 | 52.69595 | -8.92451 | 17 ft | 18 kts | 134° |
| 2026-04-25 11:51 | 52.69518 | -8.92327 | 18 ft | 9 kts | 152° |
| 2026-04-25 11:51 | 52.69473 | -8.92386 | 18 ft | 9 kts | 266° |
| 2026-04-25 11:51 | 52.69481 | -8.92486 | 17 ft | 7 kts | 265° |
| 2026-04-25 11:51 | 52.69442 | -8.92525 | 18 ft | 6 kts | 186° |
| 2026-04-25 11:52 | 52.69399 | -8.92529 | 17 ft | 5 kts | 184° |
| 2026-04-25 11:52 | 52.69397 | -8.92529 | 17 ft | 0 kts | 184° |